Hudson — CGDG — position and weather

sailwx.info

Track history (hours):
 
Tides and Currents Weather Stations Pressure Air Temp Water Temp Dewpoint Dewpoint Depression Visibility Wind Speed Wind Dir Waves Ship Positions

Oceanographic research ship Hudson (Canada)

Detailed information on ship capabilities available from University of Delaware's Ocean Information Center.

Last reported at 2018-Jan-22 11:00 UTC. Time now 2018-Jan-22 12:43 UTC.
Position N 44°42' W 063°36'.

Length 85.03 m; beam 15.2 m; draft 6.28 m.

Type: Ship. MMSI: 316024000.

Wind from 330 at 15 knots

Barometer 1026.6 mb
Air temperature -8.2 ° C
Dewpoint -20.0 ° C

Date/timePositionNaut miles runAvg speedWind from/ knotsBaromVisibWave heightAir tempDewpointWater temp
2018-Jan-22 11:00N 44°42' W 063°36'0 0.0 330 / 151026.6 -8.2-20.0
2018-Jan-22 10:00N 44°42' W 063°36'0 0.0 330 / 151025.8 -7.3-18.4
2018-Jan-22 08:00N 44°42' W 063°36'0 0.0 330 / 101023.9 -5.4-12.6
2018-Jan-22 06:00N 44°42' W 063°36'0 0.0 290 / 111022.1 -2.7-10.9
2018-Jan-22 05:00N 44°42' W 063°36'0 0.0 280 / 71021.6 -2.6-9.1
2018-Jan-22 02:00N 44°42' W 063°36'0 0.0 260 / 51020.5 -2.2-9.6
2018-Jan-22 01:00N 44°42' W 063°36'0 0.0 260 / 61020.2 -2.1-9.9
2018-Jan-22 00:00N 44°42' W 063°36'0 0.0 260 / 51019.5 -2.1-11.6
2018-Jan-21 22:00N 44°42' W 063°36'0 0.0 290 / 71018.3 -0.9-13.3
2018-Jan-21 19:00N 44°42' W 063°36'0 0.0 300 / 151015.4 0.8-12.6
2018-Jan-21 18:00N 44°42' W 063°36'0 0.0 300 / 181014.9 0.7-13.1
2018-Jan-21 17:00N 44°42' W 063°36'0 0.0 290 / 151014.6 0.5-10.3
2018-Jan-21 16:00N 44°42' W 063°36'0 0.0 320 / 111015.4 -0.2-6.9
2018-Jan-21 15:00N 44°42' W 063°36'0 0.0 300
2018-Jan-21 13:00N 44°42' W 063°36'0 0.0
2018-Jan-21 12:00N 44°42' W 063°36'0 0.0 300 / 121013.0 0.1-2.2
2018-Jan-21 11:00N 44°42' W 063°36'0 0.0 280 / 71011.1 0.5-0.9
2018-Jan-21 08:00N 44°42' W 063°36'0 0.0 300 / 131007.7 2.6-0.9
2018-Jan-21 07:00N 44°42' W 063°36'0 0.0 290 / 181006.3 3.6 0.7
2018-Jan-21 04:00N 44°42' W 063°36'0 0.0 240 / 141004.1 2.6 2.5
2018-Jan-21 03:00N 44°42' W 063°36'0 0.0 230 / 161003.1 2.6 2.6
2018-Jan-21 00:00N 44°42' W 063°36'0 0.0 240 / 161001.1 2.7 2.7
2018-Jan-20 23:00N 44°42' W 063°36'0 0.0 240 / 121000.8 2.9 2.9
2018-Jan-20 22:00N 44°42' W 063°36'0 0.0 260 / 11999.3 3.4 3.5
2018-Jan-20 21:00N 44°42' W 063°36'0 0.0 260 / 12997.4 4.1 4.1
2018-Jan-20 18:00N 44°42' W 063°36'0 0.0 210 / 14997.6 3.0 3.2
2018-Jan-20 16:00N 44°42' W 063°36'0 0.0 180 / 111001.1 1.8 2.0
2018-Jan-20 15:00N 44°42' W 063°36'0 0.0 180 / 101003.1 1.4 1.6
2018-Jan-20 13:00N 44°42' W 063°36'0 0.0 160 / 81006.0 -0.4-0.1
2018-Jan-20 11:00N 44°42' W 063°36'0 0.0 140 / 101008.4 -2.3-2.2
2018-Jan-20 09:00N 44°42' W 063°36'0 0.0 150 / 71009.7 -3.1-3.2
2018-Jan-20 05:00N 44°42' W 063°36'0 0.0 030 / 11013.5 -7.9-7.8
2018-Jan-20 03:00N 44°42' W 063°36'0 0.0 1013.4 -8.1-8.0
2018-Jan-20 02:00N 44°42' W 063°36'0 0.0 010 / 11013.3 -7.6-7.6
2018-Jan-20 01:00N 44°42' W 063°36'0 0.0 340 / 41013.1 -7.2-7.2
2018-Jan-19 23:00N 44°42' W 063°36'0 0.0 330 / 51012.6 -6.6-6.7
2018-Jan-19 22:00N 44°42' W 063°36'0 0.0 310 / 81012.3 -6.1-6.2
2018-Jan-19 20:00N 44°42' W 063°36'0 0.0 320 / 111011.8 -6.2-7.1
2018-Jan-19 19:00N 44°42' W 063°36'0 0.0 310 / 151011.0 -6.1-7.8
2018-Jan-19 17:00N 44°42' W 063°36'0 0.0 330 / 121010.3 -5.8-7.8
2018-Jan-19 15:00N 44°42' W 063°36'0 0.0 330 / 101011.1 -5.9-6.0
2018-Jan-19 12:00N 44°42' W 063°36'0 0.0 330 / 91010.4 -7.7-7.6
2018-Jan-19 11:00N 44°42' W 063°36'0 0.0 340 / 81009.3 -7.6-7.6
2018-Jan-19 09:00N 44°42' W 063°36'0 0.0 340 / 51008.8 -7.7-7.7
2018-Jan-19 06:00N 44°42' W 063°36'0 0.0 350 / 21008.7 -6.0-6.0
2018-Jan-19 05:00N 44°42' W 063°36'0 0.0 360 / 21008.8 -5.5-5.5
2018-Jan-19 04:00N 44°42' W 063°36'0 0.0 350 / 41007.7 -5.0-5.0
2018-Jan-19 03:00N 44°42' W 063°36'0 0.0 350 / 51008.6 -4.0-4.0
2018-Jan-19 02:00N 44°42' W 063°36'0 0.0 340 / 81008.7 -2.9-2.9
2018-Jan-19 01:00N 44°42' W 063°36'0 0.0 340 / 51008.5 -1.7-1.7
2018-Jan-19 00:00N 44°42' W 063°36'0 0.0 320 / 101008.5 -1.2-1.3
2018-Jan-18 23:00N 44°42' W 063°36'0 0.0 340 / 31008.3 -0.7-0.6
2018-Jan-18 22:00N 44°42' W 063°36'0 0.0 330 / 121007.1 0.1 0.2
2018-Jan-18 17:00N 44°42' W 063°36'0 0.0 320 / 61009.6 -0.5-0.3
2018-Jan-18 16:00N 44°42' W 063°36'0 0.0 320 / 51010.5 -0.6-0.4
2018-Jan-18 15:00N 44°42' W 063°36'0 0.0 310 / 41011.2 -0.5-0.2
2018-Jan-18 13:00N 44°42' W 063°36'0 0.0 310 / 61011.1 -1.7-1.4
2018-Jan-18 11:00N 44°42' W 063°36'0 0.0 310 / 41010.1 -1.4-0.8
2018-Jan-18 07:00N 44°42' W 063°36'0 0.0 330 / 61009.5 -1.2-0.7
2018-Jan-18 03:00N 44°42' W 063°36'0 0.0 330 / 41014.3 -1.2-0.7
2018-Jan-17 23:00N 44°42' W 063°36'0 0.0 060 / 41021.4 -1.9-1.4
2018-Jan-17 21:00N 44°42' W 063°36'0 0.0 070 / 31024.8 -1.4-0.9
2018-Jan-17 20:00N 44°42' W 063°36'0 0.0 070 / 11025.3 -1.5-1.0
2018-Jan-17 19:00N 44°42' W 063°36'0 0.0 090 / 31025.4 -1.8-1.3
2018-Jan-17 18:00N 44°42' W 063°36'0 0.0 080 / 21026.1 -1.7-1.3
2018-Jan-17 11:00N 44°42' W 063°36'0 0.0 070 / 21032.6 -4.8-4.8
2018-Jan-17 05:00N 44°42' W 063°36'0 0.0 260 / 51031.7 -4.5-4.5
2018-Jan-17 01:00N 44°42' W 063°36'0 0.0 280 / 61032.2 -3.0-3.1
2018-Jan-16 22:00N 44°42' W 063°36'0 0.0 300 / 81031.0 -2.1-2.1
2018-Jan-15 12:00N 44°42' W 063°36'0 0.0 040 / 41041.6 -6.2-6.3
2018-Jan-15 03:00N 44°42' W 063°36'0 0.0 350 / 51038.2 -6.3-6.4
2018-Jan-14 23:00N 44°42' W 063°36'0 0.0 030 / 51035.0 -4.8-5.0
2018-Jan-14 16:00N 44°42' W 063°36'0 0.0 340 / 91030.2 -3.8-3.9
2018-Jan-14 12:00N 44°42' W 063°36'0 0.0 340 / 91025.7 -3.8-3.8
2018-Jan-14 04:00N 44°42' W 063°36'0 0.0 290 / 71015.2 6.2 6.4
2018-Jan-13 23:00N 44°42' W 063°36'0 0.0 210 / 201007.6 9.510.2
2018-Jan-12 11:00N 44°42' W 063°36'   230 / 81024.7 6.6 6.9
Track history (hours):
 
Tides and Currents Weather Stations Pressure Air Temp Water Temp Dewpoint Dewpoint Depression Visibility Wind Speed Wind Dir Waves Ship Positions

Oceanographic research ship Hudson (Canada)

Detailed information on ship capabilities available from University of Delaware's Ocean Information Center.

Last reported at 2018-Jan-22 11:00 UTC. Time now 2018-Jan-22 12:43 UTC.
Position N 44°42' W 063°36'.

Length 85.03 m; beam 15.2 m; draft 6.28 m.

Type: Ship. MMSI: 316024000.

Wind from 330 at 15 knots

Barometer 1026.6 mb
Air temperature -8.2 ° C
Dewpoint -20.0 ° C

Date/timePositionNaut miles runAvg speedWind from/ knotsBaromVisibWave heightAir tempDewpointWater temp
2018-Jan-22 11:00N 44°42' W 063°36'0 0.0 330 / 151026.6 -8.2-20.0
2018-Jan-22 10:00N 44°42' W 063°36'0 0.0 330 / 151025.8 -7.3-18.4
2018-Jan-22 08:00N 44°42' W 063°36'0 0.0 330 / 101023.9 -5.4-12.6
2018-Jan-22 06:00N 44°42' W 063°36'0 0.0 290 / 111022.1 -2.7-10.9
2018-Jan-22 05:00N 44°42' W 063°36'0 0.0 280 / 71021.6 -2.6-9.1
2018-Jan-22 02:00N 44°42' W 063°36'0 0.0 260 / 51020.5 -2.2-9.6
2018-Jan-22 01:00N 44°42' W 063°36'0 0.0 260 / 61020.2 -2.1-9.9
2018-Jan-22 00:00N 44°42' W 063°36'0 0.0 260 / 51019.5 -2.1-11.6
2018-Jan-21 22:00N 44°42' W 063°36'0 0.0 290 / 71018.3 -0.9-13.3
2018-Jan-21 19:00N 44°42' W 063°36'0 0.0 300 / 151015.4 0.8-12.6
2018-Jan-21 18:00N 44°42' W 063°36'0 0.0 300 / 181014.9 0.7-13.1
2018-Jan-21 17:00N 44°42' W 063°36'0 0.0 290 / 151014.6 0.5-10.3
2018-Jan-21 16:00N 44°42' W 063°36'0 0.0 320 / 111015.4 -0.2-6.9
2018-Jan-21 15:00N 44°42' W 063°36'0 0.0 300
2018-Jan-21 13:00N 44°42' W 063°36'0 0.0
2018-Jan-21 12:00N 44°42' W 063°36'0 0.0 300 / 121013.0 0.1-2.2
2018-Jan-21 11:00N 44°42' W 063°36'0 0.0 280 / 71011.1 0.5-0.9
2018-Jan-21 08:00N 44°42' W 063°36'0 0.0 300 / 131007.7 2.6-0.9
2018-Jan-21 07:00N 44°42' W 063°36'0 0.0 290 / 181006.3 3.6 0.7
2018-Jan-21 04:00N 44°42' W 063°36'0 0.0 240 / 141004.1 2.6 2.5
2018-Jan-21 03:00N 44°42' W 063°36'0 0.0 230 / 161003.1 2.6 2.6
2018-Jan-21 00:00N 44°42' W 063°36'0 0.0 240 / 161001.1 2.7 2.7
2018-Jan-20 23:00N 44°42' W 063°36'0 0.0 240 / 121000.8 2.9 2.9
2018-Jan-20 22:00N 44°42' W 063°36'0 0.0 260 / 11999.3 3.4 3.5
2018-Jan-20 21:00N 44°42' W 063°36'0 0.0 260 / 12997.4 4.1 4.1
2018-Jan-20 18:00N 44°42' W 063°36'0 0.0 210 / 14997.6 3.0 3.2
2018-Jan-20 16:00N 44°42' W 063°36'0 0.0 180 / 111001.1 1.8 2.0
2018-Jan-20 15:00N 44°42' W 063°36'0 0.0 180 / 101003.1 1.4 1.6
2018-Jan-20 13:00N 44°42' W 063°36'0 0.0 160 / 81006.0 -0.4-0.1
2018-Jan-20 11:00N 44°42' W 063°36'0 0.0 140 / 101008.4 -2.3-2.2
2018-Jan-20 09:00N 44°42' W 063°36'0 0.0 150 / 71009.7 -3.1-3.2
2018-Jan-20 05:00N 44°42' W 063°36'0 0.0 030 / 11013.5 -7.9-7.8
2018-Jan-20 03:00N 44°42' W 063°36'0 0.0 1013.4 -8.1-8.0
2018-Jan-20 02:00N 44°42' W 063°36'0 0.0 010 / 11013.3 -7.6-7.6
2018-Jan-20 01:00N 44°42' W 063°36'0 0.0 340 / 41013.1 -7.2-7.2
2018-Jan-19 23:00N 44°42' W 063°36'0 0.0 330 / 51012.6 -6.6-6.7
2018-Jan-19 22:00N 44°42' W 063°36'0 0.0 310 / 81012.3 -6.1-6.2
2018-Jan-19 20:00N 44°42' W 063°36'0 0.0 320 / 111011.8 -6.2-7.1
2018-Jan-19 19:00N 44°42' W 063°36'0 0.0 310 / 151011.0 -6.1-7.8
2018-Jan-19 17:00N 44°42' W 063°36'0 0.0 330 / 121010.3 -5.8-7.8
2018-Jan-19 15:00N 44°42' W 063°36'0 0.0 330 / 101011.1 -5.9-6.0
2018-Jan-19 12:00N 44°42' W 063°36'0 0.0 330 / 91010.4 -7.7-7.6
2018-Jan-19 11:00N 44°42' W 063°36'0 0.0 340 / 81009.3 -7.6-7.6
2018-Jan-19 09:00N 44°42' W 063°36'0 0.0 340 / 51008.8 -7.7-7.7
2018-Jan-19 06:00N 44°42' W 063°36'0 0.0 350 / 21008.7 -6.0-6.0
2018-Jan-19 05:00N 44°42' W 063°36'0 0.0 360 / 21008.8 -5.5-5.5
2018-Jan-19 04:00N 44°42' W 063°36'0 0.0 350 / 41007.7 -5.0-5.0
2018-Jan-19 03:00N 44°42' W 063°36'0 0.0 350 / 51008.6 -4.0-4.0
2018-Jan-19 02:00N 44°42' W 063°36'0 0.0 340 / 81008.7 -2.9-2.9
2018-Jan-19 01:00N 44°42' W 063°36'0 0.0 340 / 51008.5 -1.7-1.7
2018-Jan-19 00:00N 44°42' W 063°36'0 0.0 320 / 101008.5 -1.2-1.3
2018-Jan-18 23:00N 44°42' W 063°36'0 0.0 340 / 31008.3 -0.7-0.6
2018-Jan-18 22:00N 44°42' W 063°36'0 0.0 330 / 121007.1 0.1 0.2
2018-Jan-18 17:00N 44°42' W 063°36'0 0.0 320 / 61009.6 -0.5-0.3
2018-Jan-18 16:00N 44°42' W 063°36'0 0.0 320 / 51010.5 -0.6-0.4
2018-Jan-18 15:00N 44°42' W 063°36'0 0.0 310 / 41011.2 -0.5-0.2
2018-Jan-18 13:00N 44°42' W 063°36'0 0.0 310 / 61011.1 -1.7-1.4
2018-Jan-18 11:00N 44°42' W 063°36'0 0.0 310 / 41010.1 -1.4-0.8
2018-Jan-18 07:00N 44°42' W 063°36'0 0.0 330 / 61009.5 -1.2-0.7
2018-Jan-18 03:00N 44°42' W 063°36'0 0.0 330 / 41014.3 -1.2-0.7
2018-Jan-17 23:00N 44°42' W 063°36'0 0.0 060 / 41021.4 -1.9-1.4
2018-Jan-17 21:00N 44°42' W 063°36'0 0.0 070 / 31024.8 -1.4-0.9
2018-Jan-17 20:00N 44°42' W 063°36'0 0.0 070 / 11025.3 -1.5-1.0
2018-Jan-17 19:00N 44°42' W 063°36'0 0.0 090 / 31025.4 -1.8-1.3
2018-Jan-17 18:00N 44°42' W 063°36'0 0.0 080 / 21026.1 -1.7-1.3
2018-Jan-17 11:00N 44°42' W 063°36'0 0.0 070 / 21032.6 -4.8-4.8
2018-Jan-17 05:00N 44°42' W 063°36'0 0.0 260 / 51031.7 -4.5-4.5
2018-Jan-17 01:00N 44°42' W 063°36'0 0.0 280 / 61032.2 -3.0-3.1
2018-Jan-16 22:00N 44°42' W 063°36'0 0.0 300 / 81031.0 -2.1-2.1
2018-Jan-15 12:00N 44°42' W 063°36'0 0.0 040 / 41041.6 -6.2-6.3
2018-Jan-15 03:00N 44°42' W 063°36'0 0.0 350 / 51038.2 -6.3-6.4
2018-Jan-14 23:00N 44°42' W 063°36'0 0.0 030 / 51035.0 -4.8-5.0
2018-Jan-14 16:00N 44°42' W 063°36'0 0.0 340 / 91030.2 -3.8-3.9
2018-Jan-14 12:00N 44°42' W 063°36'0 0.0 340 / 91025.7 -3.8-3.8
2018-Jan-14 04:00N 44°42' W 063°36'0 0.0 290 / 71015.2 6.2 6.4
2018-Jan-13 23:00N 44°42' W 063°36'0 0.0 210 / 201007.6 9.510.2
2018-Jan-12 11:00N 44°42' W 063°36'   230 / 81024.7 6.6 6.9

Dump ship's entire track history